Erria Swan — 9HHJ9 — position and weather

sailwx.info

Track history (hours):
 
Tides and Currents Weather Stations Pressure Air Temp Water Temp Dewpoint Dewpoint Depression Visibility Wind Speed Wind Dir Waves Ship Positions

Erria Swan

Last reported at 2015-Jul-04 02:33 UTC. Time now 2015-Jul-05 13:21 UTC.
Position N 29°20' W 094°47'.

Length 134 m; draft 6.2 m.

Type: Tanker. MMSI: 256986000.

Date/timePositionNaut miles runAvg speedWind from/ knotsBaromVisibWave heightAir tempDewpointWater temp
2015-Jul-04 02:33N 29°20' W 094°47'  
2015-Jul-01 17:33N 29°20' W 094°47'2 2.0
2015-Jul-01 16:20N 29°21' W 094°44'0 0.1
2015-Jul-01 15:32N 29°21' W 094°44'0 0.0
2015-Jul-01 14:08N 29°21' W 094°44'0 0.0
2015-Jul-01 13:20N 29°21' W 094°44'0 0.0
2015-Jul-01 12:23N 29°21' W 094°44'0 0.0
2015-Jul-01 11:23N 29°21' W 094°44'0 0.0
2015-Jul-01 10:29N 29°21' W 094°44'0 0.0
2015-Jul-01 09:32N 29°21' W 094°44'0 0.0
2015-Jul-01 08:11N 29°21' W 094°44'0 0.1
2015-Jul-01 07:11N 29°21' W 094°44'0 0.0
2015-Jul-01 06:17N 29°21' W 094°44'0 0.0
2015-Jul-01 05:32N 29°21' W 094°44'0 0.0
2015-Jul-01 04:32N 29°21' W 094°44'0 0.0
2015-Jul-01 03:32N 29°21' W 094°44'0 0.0
2015-Jul-01 02:29N 29°21' W 094°44'0 0.0
2015-Jul-01 01:32N 29°21' W 094°44'0 0.0
2015-Jul-01 00:29N 29°21' W 094°44'0 0.0
2015-Jun-30 23:33N 29°21' W 094°44'0 0.0
2015-Jun-30 22:33N 29°21' W 094°44'0 0.0
2015-Jun-30 21:33N 29°21' W 094°44'0 0.0
2015-Jun-30 20:21N 29°21' W 094°44'0 0.0
2015-Jun-30 18:09N 29°21' W 094°44'0 0.0
2015-Jun-30 17:30N 29°21' W 094°44'0 0.0
2015-Jun-30 16:24N 29°21' W 094°44'0 0.1
2015-Jun-30 15:30N 29°21' W 094°44'0 0.0
2015-Jun-30 13:06N 29°21' W 094°44'0 0.0
2015-Jun-30 12:27N 29°21' W 094°44'0 0.0
2015-Jun-30 11:30N 29°21' W 094°44'0 0.0
2015-Jun-30 10:30N 29°21' W 094°44'0 0.0
2015-Jun-30 08:33N 29°21' W 094°44'0 0.1
2015-Jun-30 07:33N 29°21' W 094°44'0 0.1
2015-Jun-30 06:12N 29°21' W 094°44'0 0.0
2015-Jun-30 05:18N 29°21' W 094°44'0 0.0
2015-Jun-30 04:21N 29°21' W 094°44'0 0.0
2015-Jun-30 02:30N 29°21' W 094°44'0 0.0
2015-Jun-30 01:30N 29°21' W 094°44'0 0.0
2015-Jun-30 00:30N 29°21' W 094°44'0 0.0
2015-Jun-29 23:30N 29°21' W 094°44'0 0.0
2015-Jun-29 22:27N 29°21' W 094°44'0 0.0
2015-Jun-29 21:33N 29°21' W 094°44'0 0.0
2015-Jun-29 18:03N 29°21' W 094°44'0 0.0
2015-Jun-29 17:30N 29°21' W 094°44'0 0.0
2015-Jun-29 16:06N 29°21' W 094°44'0 0.0
2015-Jun-29 15:24N 29°21' W 094°44'0 0.2
2015-Jun-29 14:24N 29°21' W 094°44'0 0.0
2015-Jun-29 13:33N 29°21' W 094°44'0 0.0
2015-Jun-29 12:24N 29°21' W 094°44'0 0.0
2015-Jun-29 10:24N 29°21' W 094°44'0 0.0
2015-Jun-29 09:30N 29°21' W 094°44'0 0.0
2015-Jun-29 08:30N 29°21' W 094°44'0 0.0
2015-Jun-29 07:30N 29°21' W 094°44'0 0.1
2015-Jun-29 06:30N 29°21' W 094°44'0 0.1
2015-Jun-29 05:18N 29°21' W 094°44'0 0.0
2015-Jun-29 04:33N 29°21' W 094°44'0 0.0
2015-Jun-29 03:30N 29°21' W 094°44'0 0.0
2015-Jun-29 02:24N 29°21' W 094°44'0 0.0
2015-Jun-29 01:24N 29°21' W 094°44'0 0.0
2015-Jun-29 00:09N 29°21' W 094°44'0 0.0
2015-Jun-28 23:27N 29°21' W 094°44'0 0.0
2015-Jun-28 22:30N 29°21' W 094°44'0 0.0
2015-Jun-28 21:30N 29°21' W 094°44'0 0.0
2015-Jun-28 20:33N 29°21' W 094°44'0 0.0
2015-Jun-28 19:33N 29°21' W 094°44'0 0.0
2015-Jun-28 18:32N 29°21' W 094°44'0 0.0
2015-Jun-28 17:33N 29°21' W 094°44'7 7.0
2015-Jun-28 16:33N 29°26' W 094°50'1110.7
2015-Jun-28 15:33N 29°35' W 094°56'10 9.7
2015-Jun-28 14:33N 29°44' W 095°01'7 6.8
2015-Jun-28 13:33N 29°44' W 095°09'5 5.2
2015-Jun-28 12:33N 29°44' W 095°15'  
2015-Jun-25 23:28N 29°44' W 095°17'3 2.9
2015-Jun-25 22:33N 29°43' W 095°14'6 5.8
2015-Jun-25 21:33N 29°44' W 095°07'6 5.7
2015-Jun-25 20:33N 29°42' W 095°01'6 5.7
2015-Jun-25 19:33N 29°37' W 094°59'2 1.7
2015-Jun-25 18:33N 29°37' W 095°01'0 0.0
2015-Jun-25 17:31N 29°37' W 095°01'0 0.0
2015-Jun-25 16:31N 29°37' W 095°01'0 0.0
2015-Jun-25 15:31N 29°37' W 095°01'0 0.0
2015-Jun-25 14:31N 29°37' W 095°01'0 0.0
2015-Jun-25 13:31N 29°37' W 095°01'0 0.0
2015-Jun-25 12:31N 29°37' W 095°01'0 0.0
2015-Jun-25 11:31N 29°37' W 095°01'0 0.0
2015-Jun-25 10:31N 29°37' W 095°01'0 0.0
2015-Jun-25 09:28N 29°37' W 095°01'0 0.0
2015-Jun-25 08:25N 29°37' W 095°01'0 0.0
2015-Jun-25 07:31N 29°37' W 095°01'0 0.0
2015-Jun-25 06:31N 29°37' W 095°01'0 0.0
2015-Jun-25 05:28N 29°37' W 095°01'0 0.0
2015-Jun-25 04:31N 29°37' W 095°01'0 0.0
2015-Jun-25 03:31N 29°37' W 095°01'0 0.0
2015-Jun-25 02:31N 29°37' W 095°01'0 0.0
2015-Jun-25 01:31N 29°37' W 095°01'0 0.0
2015-Jun-25 00:31N 29°37' W 095°01'0 0.0
2015-Jun-24 23:31N 29°37' W 095°01'0 0.0
2015-Jun-24 22:31N 29°37' W 095°01'0 0.0
2015-Jun-24 21:28N 29°37' W 095°01'0 0.0
2015-Jun-24 20:33N 29°37' W 095°01'0 0.0
2015-Jun-24 19:33N 29°37' W 095°01'5 4.6
2015-Jun-24 18:33N 29°35' W 094°56'1010.3
2015-Jun-24 17:33N 29°26' W 094°50'  
Track history (hours):
 
Tides and Currents Weather Stations Pressure Air Temp Water Temp Dewpoint Dewpoint Depression Visibility Wind Speed Wind Dir Waves Ship Positions

Erria Swan

Last reported at 2015-Jul-04 02:33 UTC. Time now 2015-Jul-05 13:21 UTC.
Position N 29°20' W 094°47'.

Length 134 m; draft 6.2 m.

Type: Tanker. MMSI: 256986000.

Date/timePositionNaut miles runAvg speedWind from/ knotsBaromVisibWave heightAir tempDewpointWater temp
2015-Jul-04 02:33N 29°20' W 094°47'  
2015-Jul-01 17:33N 29°20' W 094°47'2 2.0
2015-Jul-01 16:20N 29°21' W 094°44'0 0.1
2015-Jul-01 15:32N 29°21' W 094°44'0 0.0
2015-Jul-01 14:08N 29°21' W 094°44'0 0.0
2015-Jul-01 13:20N 29°21' W 094°44'0 0.0
2015-Jul-01 12:23N 29°21' W 094°44'0 0.0
2015-Jul-01 11:23N 29°21' W 094°44'0 0.0
2015-Jul-01 10:29N 29°21' W 094°44'0 0.0
2015-Jul-01 09:32N 29°21' W 094°44'0 0.0
2015-Jul-01 08:11N 29°21' W 094°44'0 0.1
2015-Jul-01 07:11N 29°21' W 094°44'0 0.0
2015-Jul-01 06:17N 29°21' W 094°44'0 0.0
2015-Jul-01 05:32N 29°21' W 094°44'0 0.0
2015-Jul-01 04:32N 29°21' W 094°44'0 0.0
2015-Jul-01 03:32N 29°21' W 094°44'0 0.0
2015-Jul-01 02:29N 29°21' W 094°44'0 0.0
2015-Jul-01 01:32N 29°21' W 094°44'0 0.0
2015-Jul-01 00:29N 29°21' W 094°44'0 0.0
2015-Jun-30 23:33N 29°21' W 094°44'0 0.0
2015-Jun-30 22:33N 29°21' W 094°44'0 0.0
2015-Jun-30 21:33N 29°21' W 094°44'0 0.0
2015-Jun-30 20:21N 29°21' W 094°44'0 0.0
2015-Jun-30 18:09N 29°21' W 094°44'0 0.0
2015-Jun-30 17:30N 29°21' W 094°44'0 0.0
2015-Jun-30 16:24N 29°21' W 094°44'0 0.1
2015-Jun-30 15:30N 29°21' W 094°44'0 0.0
2015-Jun-30 13:06N 29°21' W 094°44'0 0.0
2015-Jun-30 12:27N 29°21' W 094°44'0 0.0
2015-Jun-30 11:30N 29°21' W 094°44'0 0.0
2015-Jun-30 10:30N 29°21' W 094°44'0 0.0
2015-Jun-30 08:33N 29°21' W 094°44'0 0.1
2015-Jun-30 07:33N 29°21' W 094°44'0 0.1
2015-Jun-30 06:12N 29°21' W 094°44'0 0.0
2015-Jun-30 05:18N 29°21' W 094°44'0 0.0
2015-Jun-30 04:21N 29°21' W 094°44'0 0.0
2015-Jun-30 02:30N 29°21' W 094°44'0 0.0
2015-Jun-30 01:30N 29°21' W 094°44'0 0.0
2015-Jun-30 00:30N 29°21' W 094°44'0 0.0
2015-Jun-29 23:30N 29°21' W 094°44'0 0.0
2015-Jun-29 22:27N 29°21' W 094°44'0 0.0
2015-Jun-29 21:33N 29°21' W 094°44'0 0.0
2015-Jun-29 18:03N 29°21' W 094°44'0 0.0
2015-Jun-29 17:30N 29°21' W 094°44'0 0.0
2015-Jun-29 16:06N 29°21' W 094°44'0 0.0
2015-Jun-29 15:24N 29°21' W 094°44'0 0.2
2015-Jun-29 14:24N 29°21' W 094°44'0 0.0
2015-Jun-29 13:33N 29°21' W 094°44'0 0.0
2015-Jun-29 12:24N 29°21' W 094°44'0 0.0
2015-Jun-29 10:24N 29°21' W 094°44'0 0.0
2015-Jun-29 09:30N 29°21' W 094°44'0 0.0
2015-Jun-29 08:30N 29°21' W 094°44'0 0.0
2015-Jun-29 07:30N 29°21' W 094°44'0 0.1
2015-Jun-29 06:30N 29°21' W 094°44'0 0.1
2015-Jun-29 05:18N 29°21' W 094°44'0 0.0
2015-Jun-29 04:33N 29°21' W 094°44'0 0.0
2015-Jun-29 03:30N 29°21' W 094°44'0 0.0
2015-Jun-29 02:24N 29°21' W 094°44'0 0.0
2015-Jun-29 01:24N 29°21' W 094°44'0 0.0
2015-Jun-29 00:09N 29°21' W 094°44'0 0.0
2015-Jun-28 23:27N 29°21' W 094°44'0 0.0
2015-Jun-28 22:30N 29°21' W 094°44'0 0.0
2015-Jun-28 21:30N 29°21' W 094°44'0 0.0
2015-Jun-28 20:33N 29°21' W 094°44'0 0.0
2015-Jun-28 19:33N 29°21' W 094°44'0 0.0
2015-Jun-28 18:32N 29°21' W 094°44'0 0.0
2015-Jun-28 17:33N 29°21' W 094°44'7 7.0
2015-Jun-28 16:33N 29°26' W 094°50'1110.7
2015-Jun-28 15:33N 29°35' W 094°56'10 9.7
2015-Jun-28 14:33N 29°44' W 095°01'7 6.8
2015-Jun-28 13:33N 29°44' W 095°09'5 5.2
2015-Jun-28 12:33N 29°44' W 095°15'  
2015-Jun-25 23:28N 29°44' W 095°17'3 2.9
2015-Jun-25 22:33N 29°43' W 095°14'6 5.8
2015-Jun-25 21:33N 29°44' W 095°07'6 5.7
2015-Jun-25 20:33N 29°42' W 095°01'6 5.7
2015-Jun-25 19:33N 29°37' W 094°59'2 1.7
2015-Jun-25 18:33N 29°37' W 095°01'0 0.0
2015-Jun-25 17:31N 29°37' W 095°01'0 0.0
2015-Jun-25 16:31N 29°37' W 095°01'0 0.0
2015-Jun-25 15:31N 29°37' W 095°01'0 0.0
2015-Jun-25 14:31N 29°37' W 095°01'0 0.0
2015-Jun-25 13:31N 29°37' W 095°01'0 0.0
2015-Jun-25 12:31N 29°37' W 095°01'0 0.0
2015-Jun-25 11:31N 29°37' W 095°01'0 0.0
2015-Jun-25 10:31N 29°37' W 095°01'0 0.0
2015-Jun-25 09:28N 29°37' W 095°01'0 0.0
2015-Jun-25 08:25N 29°37' W 095°01'0 0.0
2015-Jun-25 07:31N 29°37' W 095°01'0 0.0
2015-Jun-25 06:31N 29°37' W 095°01'0 0.0
2015-Jun-25 05:28N 29°37' W 095°01'0 0.0
2015-Jun-25 04:31N 29°37' W 095°01'0 0.0
2015-Jun-25 03:31N 29°37' W 095°01'0 0.0
2015-Jun-25 02:31N 29°37' W 095°01'0 0.0
2015-Jun-25 01:31N 29°37' W 095°01'0 0.0
2015-Jun-25 00:31N 29°37' W 095°01'0 0.0
2015-Jun-24 23:31N 29°37' W 095°01'0 0.0
2015-Jun-24 22:31N 29°37' W 095°01'0 0.0
2015-Jun-24 21:28N 29°37' W 095°01'0 0.0
2015-Jun-24 20:33N 29°37' W 095°01'0 0.0
2015-Jun-24 19:33N 29°37' W 095°01'5 4.6
2015-Jun-24 18:33N 29°35' W 094°56'1010.3
2015-Jun-24 17:33N 29°26' W 094°50'  

Dump ship's entire track history